Plainview, TX

9:13 AM CDT on October 23, 2014 (GMT -0500)
Hale County | Change Station
CLOSE
Current Station
Airport
Location: Plainview,
Elevation: 3373 ft
Nearby Weather Stations

Elev 3373 ft 34.17 °N, 101.72 °W | Updated 18 minutes ago

Fog
Fog
52 °F
Feels Like 52 °F
N
0
Wind Variable Wind from North

Today
High -- | Low -- °F
--% Chance of Precip.
Yesterday
High -- | Low -- °F
Precip. -- in
7:58 AM 7:03 PM
Waning Crescent, 0% visible
Pressure 30.13 in
Visibility 0.2 miles
Clouds Overcast 200 ft
Dew Point 52 °F
Humidity 98%
Rainfall 0.00 in
Snow Depth Not available.
UV 0 out of 12
Pollen 4.90 out of 12
Air Quality Not available.
Flu Activity Sporadic
METAR KPVW 231355Z AUTO 00000KT 1/4SM FG OVC002 11/11 A3013 RMK AO2 T01130110

More Conditions Fewer Conditions

Pressure 30.13 in
Visibility 0.2 miles
Clouds Overcast 200 ft
Dew Point 52 °F
Humidity 98%
Rainfall 0.00 in
Snow Depth Not available.
UV 0 out of 12
Pollen 4.90 out of 12
Air Quality Not available.
Flu Activity Sporadic
METAR KPVW 231355Z AUTO 00000KT 1/4SM FG OVC002 11/11 A3013 RMK AO2 T01130110

More Conditions Fewer Conditions

Nowcast | as of 9:06 am CDT on October 23, 2014

Areas of fog will remain on The Caprock and the extreme southeast Texas Panhandle through mid to late morning. Visibilities below a mile and locally under a quarter of a mile will slowly improve later in the morning. Watch for rapidly changing visibilities this morning.

×

10-Day Weather Forecast

Almanac

Astronomy

Oct. 23, 2014 Rise Set
Actual Time 7:58 AM CDT 7:03 PM CDT
Civil Twilight 7:33 AM CDT 7:28 PM CDT
Nautical Twilight 7:03 AM CDT 7:57 PM CDT
Astronomical Twilight 6:34 AM CDT 8:26 PM CDT
Moon 7:41 AM CDT 7:06 PM CDT
Length of Visible Light 11h 55m
Length of Day
11h 04m
Tomorrow will be 1m 58s shorter.
Waning Crescent, 0% of the Moon is Illuminated
Today
Waning Crescent
Oct 23
New
Oct 30
First Quarter
Nov 6
Full
Nov 14
Last Quarter

Today's Extremes

State Highs State Lows

Community

WunderPhotos

Upload Photos

1,764,256 photos uploaded!

Nearby

Snow Depth

Station Depth Elevation
No new snow has been reported.

Earthquake Activity

City Distance Mag. Time & Date
No recent earthquake activity has been reported nearby.
Minimum magnitude displayed is 2.5.

Coastal Water Temperatures

Place Temperature
No Stations Reporting

Nearby Weather Stations